createdAt,value
2022-10-24T00:00:07.991Z,50.849510
2022-10-24T00:01:07.947Z,50.849476
2022-10-24T00:02:07.927Z,50.849499
2022-10-24T00:03:07.959Z,50.849518
2022-10-24T00:04:07.903Z,50.849537
2022-10-24T00:05:07.945Z,50.849510
2022-10-24T00:06:07.907Z,50.849514
2022-10-24T00:07:07.875Z,50.849522
2022-10-24T00:08:07.878Z,50.849491
2022-10-24T00:09:07.861Z,50.849499
2022-10-24T00:10:07.864Z,50.849503
2022-10-24T00:11:07.885Z,50.849503
2022-10-24T00:12:07.861Z,50.849533
2022-10-24T00:13:07.835Z,50.849529
2022-10-24T00:14:07.841Z,50.849541
2022-10-24T00:15:07.815Z,50.849506
2022-10-24T00:16:07.829Z,50.849480
2022-10-24T00:17:07.800Z,50.849487
2022-10-24T00:18:07.794Z,50.849522
2022-10-24T00:19:07.788Z,50.849491
2022-10-24T00:20:07.803Z,50.849529
2022-10-24T00:21:07.767Z,50.849514
2022-10-24T00:22:07.828Z,50.849499
2022-10-24T00:23:07.758Z,50.849503
2022-10-24T00:24:07.747Z,50.849518
2022-10-24T00:25:07.741Z,50.849468
2022-10-24T00:26:07.746Z,50.849461
2022-10-24T00:27:07.728Z,50.849461
2022-10-24T00:28:07.740Z,50.849487
2022-10-24T00:29:07.744Z,50.849495
2022-10-24T00:30:07.697Z,50.849464
2022-10-24T00:31:07.693Z,50.849506
2022-10-24T00:32:07.682Z,50.849529
2022-10-24T00:33:07.677Z,50.849468
2022-10-24T00:34:07.669Z,50.849499
2022-10-24T00:35:07.684Z,50.849487
2022-10-24T00:36:07.656Z,50.849453
2022-10-24T00:37:07.677Z,50.849499
2022-10-24T00:38:07.634Z,50.849506
2022-10-24T00:39:07.631Z,50.849480
2022-10-24T00:40:07.617Z,50.849476
2022-10-24T00:41:07.629Z,50.849537
2022-10-24T00:42:07.624Z,50.849548
2022-10-24T00:43:07.602Z,50.849537
2022-10-24T00:44:07.592Z,50.849522
2022-10-24T00:45:07.582Z,50.849525
2022-10-24T00:46:07.591Z,50.849506
2022-10-24T00:47:07.563Z,50.849514
2022-10-24T00:48:07.555Z,50.849510
2022-10-24T00:49:07.543Z,50.849506
2022-10-24T00:50:07.574Z,50.849495
2022-10-24T00:51:07.526Z,50.849483
2022-10-24T00:52:07.541Z,50.849503
2022-10-24T00:53:07.515Z,50.849514
2022-10-24T00:54:07.505Z,50.849533
2022-10-24T00:55:07.502Z,50.849510
2022-10-24T00:56:07.489Z,50.849529
2022-10-24T00:57:07.494Z,50.849522
2022-10-24T00:58:07.508Z,50.849533
2022-10-24T00:59:07.465Z,50.849533
2022-10-24T01:00:07.450Z,50.849575
2022-10-24T01:01:07.538Z,50.849556
2022-10-24T01:02:07.537Z,50.849522
2022-10-24T01:03:07.430Z,50.849510
2022-10-24T01:04:07.441Z,50.849503
2022-10-24T01:05:07.414Z,50.849491
2022-10-24T01:06:07.406Z,50.849506
2022-10-24T01:07:07.395Z,50.849522
2022-10-24T01:08:07.392Z,50.849525
2022-10-24T01:09:07.379Z,50.849514
2022-10-24T01:10:07.398Z,50.849491
2022-10-24T01:11:07.403Z,50.849525
2022-10-24T01:12:07.367Z,50.849541
2022-10-24T01:13:07.353Z,50.849545
2022-10-24T01:14:07.366Z,50.849529
2022-10-24T01:15:07.358Z,50.849506
2022-10-24T01:16:07.336Z,50.849510
2022-10-24T01:17:07.343Z,50.849514
2022-10-24T01:18:07.310Z,50.849510
2022-10-24T01:19:07.298Z,50.849522
2022-10-24T01:20:07.299Z,50.849525
2022-10-24T01:21:07.281Z,50.849548
2022-10-24T01:22:07.281Z,50.849529
2022-10-24T01:23:07.294Z,50.849525
2022-10-24T01:24:07.256Z,50.849522
2022-10-24T01:25:07.243Z,50.849525
2022-10-24T01:26:07.250Z,50.849522
2022-10-24T01:27:07.274Z,50.849533
2022-10-24T01:28:07.265Z,50.849525
2022-10-24T01:29:07.217Z,50.849525
2022-10-24T01:30:07.205Z,50.849541
2022-10-24T01:31:07.194Z,50.849560
2022-10-24T01:32:07.189Z,50.849522
2022-10-24T01:33:07.208Z,50.849510
2022-10-24T01:34:07.168Z,50.849503
2022-10-24T01:35:07.186Z,50.849514
2022-10-24T01:36:07.157Z,50.849525
2022-10-24T01:37:07.145Z,50.849529
2022-10-24T01:38:07.137Z,50.849510
2022-10-24T01:39:07.189Z,50.849499
2022-10-24T01:40:07.132Z,50.849499
2022-10-24T01:41:07.150Z,50.849518
2022-10-24T01:42:07.114Z,50.849525
2022-10-24T01:43:07.154Z,50.849529
2022-10-24T01:44:07.093Z,50.849545
2022-10-24T01:45:07.078Z,50.849503
2022-10-24T01:46:07.089Z,50.849503
2022-10-24T01:47:07.082Z,50.849495
2022-10-24T01:48:07.063Z,50.849510
2022-10-24T01:49:07.082Z,50.849487
2022-10-24T01:50:07.053Z,50.849464
2022-10-24T01:51:07.037Z,50.849518
2022-10-24T01:52:07.070Z,50.849556
2022-10-24T01:53:07.043Z,50.849518
2022-10-24T01:54:07.017Z,50.849476
2022-10-24T01:55:07.028Z,50.849468
2022-10-24T01:56:06.994Z,50.849464
2022-10-24T01:57:06.982Z,50.849491
2022-10-24T01:58:06.980Z,50.849541
2022-10-24T01:59:07.043Z,50.849529
2022-10-24T02:00:06.972Z,50.849545
2022-10-24T02:01:07.338Z,50.849522
2022-10-24T02:02:06.951Z,50.849533
2022-10-24T02:03:06.942Z,50.849548
2022-10-24T02:04:07.018Z,50.849545
2022-10-24T02:05:06.934Z,50.849525
2022-10-24T02:06:06.917Z,50.849545
2022-10-24T02:07:06.979Z,50.849533
2022-10-24T02:08:06.907Z,50.849522
2022-10-24T02:09:06.925Z,50.849503
2022-10-24T02:10:06.896Z,50.849529
2022-10-24T02:11:06.892Z,50.849541
2022-10-24T02:12:06.871Z,50.849503
2022-10-24T02:13:06.882Z,50.849480
2022-10-24T02:14:06.850Z,50.849499
2022-10-24T02:15:06.837Z,50.849499
2022-10-24T02:16:06.840Z,50.849483
2022-10-24T02:17:06.819Z,50.849503
2022-10-24T02:18:06.811Z,50.849503
2022-10-24T02:19:06.830Z,50.849499
2022-10-24T02:20:06.793Z,50.849499
2022-10-24T02:21:06.780Z,50.849503
2022-10-24T02:22:06.779Z,50.849518
2022-10-24T02:23:06.791Z,50.849503
2022-10-24T02:24:06.772Z,50.849518
2022-10-24T02:25:06.754Z,50.849503
2022-10-24T02:26:06.753Z,50.849518
2022-10-24T02:27:06.742Z,50.849522
2022-10-24T02:28:06.728Z,50.849472
2022-10-24T02:29:06.760Z,50.849483
2022-10-24T02:30:06.710Z,50.849487
2022-10-24T02:31:06.703Z,50.849499
2022-10-24T02:32:06.698Z,50.849499
2022-10-24T02:33:06.685Z,50.849499
2022-10-24T02:34:06.737Z,50.849510
2022-10-24T02:35:06.694Z,50.849533
2022-10-24T02:36:06.661Z,50.849499
2022-10-24T02:37:06.653Z,50.849503
2022-10-24T02:38:06.658Z,50.849491
2022-10-24T02:39:06.638Z,50.849506
2022-10-24T02:40:06.657Z,50.849522
2022-10-24T02:41:06.624Z,50.849510
2022-10-24T02:42:06.632Z,50.849510
2022-10-24T02:43:06.654Z,50.849514
2022-10-24T02:44:06.605Z,50.849499
2022-10-24T02:45:06.599Z,50.849495
2022-10-24T02:46:06.602Z,50.849506
2022-10-24T02:47:06.566Z,50.849525
2022-10-24T02:48:06.560Z,50.849518
2022-10-24T02:49:06.544Z,50.849510
2022-10-24T02:50:06.541Z,50.849506
2022-10-24T02:51:06.754Z,50.849483
2022-10-24T02:52:06.547Z,50.849514
2022-10-24T02:53:06.519Z,50.849514
2022-10-24T02:54:06.520Z,50.849499
2022-10-24T02:55:06.540Z,50.849499
2022-10-24T02:56:06.508Z,50.849499
2022-10-24T02:57:06.532Z,50.849495
2022-10-24T02:58:06.496Z,50.849499
2022-10-24T02:59:06.525Z,50.849510
2022-10-24T03:00:06.471Z,50.849518
2022-10-24T03:01:06.558Z,50.849499
2022-10-24T03:02:06.458Z,50.849476
2022-10-24T03:03:06.451Z,50.849499
2022-10-24T03:04:06.429Z,50.849499
2022-10-24T03:05:06.415Z,50.849476
2022-10-24T03:06:06.415Z,50.849468
2022-10-24T03:07:06.406Z,50.849487
2022-10-24T03:08:06.397Z,50.849487
2022-10-24T03:09:06.810Z,50.849506
2022-10-24T03:10:13.451Z,50.849483
2022-10-24T03:11:06.368Z,50.849495
2022-10-24T03:12:06.363Z,50.849491
2022-10-24T03:13:06.349Z,50.849476
2022-10-24T03:14:06.354Z,50.849472
2022-10-24T03:15:06.363Z,50.849483
2022-10-24T03:16:08.976Z,50.849514
2022-10-24T03:17:07.352Z,50.849491
2022-10-24T03:18:06.322Z,50.849464
2022-10-24T03:19:06.312Z,50.849468
2022-10-24T03:20:06.303Z,50.849476
2022-10-24T03:21:06.311Z,50.849491
2022-10-24T03:22:06.282Z,50.849491
2022-10-24T03:23:06.271Z,50.849487
2022-10-24T03:25:06.257Z,50.849499
2022-10-24T03:26:06.249Z,50.849461
2022-10-24T03:27:06.238Z,50.849503
2022-10-24T03:28:06.248Z,50.849510
2022-10-24T03:29:06.220Z,50.849464
2022-10-24T03:30:06.244Z,50.849476
2022-10-24T03:31:06.215Z,50.849434
2022-10-24T03:32:06.228Z,50.849468
2022-10-24T03:33:06.189Z,50.849468
2022-10-24T03:34:06.195Z,50.849495
2022-10-24T03:35:09.192Z,50.849464
2022-10-24T03:36:07.179Z,50.849468
2022-10-24T03:37:06.164Z,50.849480
2022-10-24T03:38:06.172Z,50.849468
2022-10-24T03:39:06.146Z,50.849483
2022-10-24T03:40:06.138Z,50.849503
2022-10-24T03:41:06.139Z,50.849464
2022-10-24T03:42:06.119Z,50.849461
2022-10-24T03:43:06.111Z,50.849510
2022-10-24T03:44:06.135Z,50.849491
2022-10-24T03:45:06.102Z,50.849483
2022-10-24T03:46:06.101Z,50.849476
2022-10-24T03:47:06.087Z,50.849476
2022-10-24T03:48:06.135Z,50.849476
2022-10-24T03:49:06.073Z,50.849495
2022-10-24T03:50:06.095Z,50.849487
2022-10-24T03:51:06.065Z,50.849476
2022-10-24T03:52:06.047Z,50.849472
2022-10-24T03:53:06.034Z,50.849426
2022-10-24T03:54:06.749Z,50.849453
2022-10-24T03:55:06.061Z,50.849464
2022-10-24T03:56:06.033Z,50.849483
2022-10-24T03:57:06.006Z,50.849464
2022-10-24T03:58:05.992Z,50.849472
2022-10-24T03:59:05.984Z,50.849468
2022-10-24T04:00:05.980Z,50.849503
2022-10-24T04:01:06.117Z,50.849480
2022-10-24T04:02:05.990Z,50.849464
2022-10-24T04:03:05.982Z,50.849476
2022-10-24T04:04:05.954Z,50.849476
2022-10-24T04:05:05.955Z,50.849472
2022-10-24T04:06:05.931Z,50.849487
2022-10-24T04:07:05.934Z,50.849503
2022-10-24T04:08:05.919Z,50.849503
2022-10-24T04:09:05.928Z,50.849510
2022-10-24T04:10:05.926Z,50.849514
2022-10-24T04:11:05.893Z,50.849522
2022-10-24T04:12:05.879Z,50.849525
2022-10-24T04:13:05.872Z,50.849522
2022-10-24T04:14:05.914Z,50.849525
2022-10-24T04:15:05.859Z,50.849518
2022-10-24T04:16:05.853Z,50.849510
2022-10-24T04:17:05.841Z,50.849514
2022-10-24T04:18:05.827Z,50.849506
2022-10-24T04:19:05.838Z,50.849525
2022-10-24T04:20:05.861Z,50.849503
2022-10-24T04:21:05.822Z,50.849510
2022-10-24T04:22:05.801Z,50.849506
2022-10-24T04:23:05.785Z,50.849552
2022-10-24T04:24:05.783Z,50.849564
2022-10-24T04:25:05.764Z,50.849537
2022-10-24T04:26:05.794Z,50.849522
2022-10-24T04:27:05.759Z,50.849503
2022-10-24T04:28:05.759Z,50.849495
2022-10-24T04:29:05.744Z,50.849510
2022-10-24T04:30:05.758Z,50.849514
2022-10-24T04:31:05.728Z,50.849533
2022-10-24T04:32:05.743Z,50.849525
2022-10-24T04:33:05.707Z,50.849525
2022-10-24T04:34:05.694Z,50.849533
2022-10-24T04:35:05.694Z,50.849495
2022-10-24T04:36:05.677Z,50.849510
2022-10-24T04:37:05.661Z,50.849525
2022-10-24T04:38:05.689Z,50.849506
2022-10-24T04:39:05.673Z,50.849503
2022-10-24T04:40:05.646Z,50.849537
2022-10-24T04:41:07.379Z,50.849556
2022-10-24T04:42:05.660Z,50.849548
2022-10-24T04:43:05.629Z,50.849529
2022-10-24T04:44:05.652Z,50.849537
2022-10-24T04:45:05.613Z,50.849548
2022-10-24T04:46:05.604Z,50.849541
2022-10-24T04:47:05.597Z,50.849525
2022-10-24T04:48:05.587Z,50.849541
2022-10-24T04:49:05.577Z,50.849541
2022-10-24T04:50:05.648Z,50.849545
2022-10-24T04:51:05.557Z,50.849564
2022-10-24T04:52:05.546Z,50.849548
2022-10-24T04:53:05.563Z,50.849552
2022-10-24T04:54:05.561Z,50.849552
2022-10-24T04:55:05.522Z,50.849545
2022-10-24T04:56:05.516Z,50.849575
2022-10-24T04:57:05.504Z,50.849545
2022-10-24T04:58:05.505Z,50.849537
2022-10-24T04:59:05.490Z,50.849533
2022-10-24T05:00:05.509Z,50.849522
2022-10-24T05:01:05.544Z,50.849533
2022-10-24T05:02:05.541Z,50.849533
2022-10-24T05:03:05.460Z,50.849518
2022-10-24T05:04:05.470Z,50.849548
2022-10-24T05:05:05.448Z,50.849545
2022-10-24T05:06:05.458Z,50.849560
2022-10-24T05:07:05.427Z,50.849556
2022-10-24T05:08:05.414Z,50.849583
2022-10-24T05:09:05.417Z,50.849564
2022-10-24T05:10:05.415Z,50.849556
2022-10-24T05:11:05.405Z,50.849518
2022-10-24T05:12:05.412Z,50.849545
2022-10-24T05:13:05.378Z,50.849598
2022-10-24T05:14:05.374Z,50.849602
2022-10-24T05:15:05.382Z,50.849560
2022-10-24T05:16:05.365Z,50.849541
2022-10-24T05:17:05.349Z,50.849567
2022-10-24T05:18:05.363Z,50.849541
2022-10-24T05:19:05.334Z,50.849583
2022-10-24T05:20:05.325Z,50.849586
2022-10-24T05:21:05.316Z,50.849552
2022-10-24T05:22:08.537Z,50.849564
2022-10-24T05:23:06.324Z,50.849594
2022-10-24T05:24:05.291Z,50.849575
2022-10-24T05:25:05.353Z,50.849552
2022-10-24T05:26:05.790Z,50.849579
2022-10-24T05:27:05.277Z,50.849598
2022-10-24T05:28:05.282Z,50.849567
2022-10-24T05:29:05.264Z,50.849537
2022-10-24T05:30:05.251Z,50.849567
2022-10-24T05:31:05.237Z,50.849594
2022-10-24T05:32:05.247Z,50.849583
2022-10-24T05:33:05.240Z,50.849567
2022-10-24T05:34:05.211Z,50.849545
2022-10-24T05:35:05.203Z,50.849552
2022-10-24T05:36:05.197Z,50.849560
2022-10-24T05:37:05.206Z,50.849560
2022-10-24T05:38:05.177Z,50.849571
2022-10-24T05:39:05.184Z,50.849571
2022-10-24T05:40:05.170Z,50.849548
2022-10-24T05:41:05.166Z,50.849560
2022-10-24T05:42:05.151Z,50.849583
2022-10-24T05:43:05.164Z,50.849583
2022-10-24T05:44:05.169Z,50.849556
2022-10-24T05:45:05.124Z,50.849552
2022-10-24T05:46:05.120Z,50.849571
2022-10-24T05:47:05.130Z,50.849567
2022-10-24T05:48:05.097Z,50.849560
2022-10-24T05:49:05.088Z,50.849548
2022-10-24T05:50:05.076Z,50.849571
2022-10-24T05:51:05.079Z,50.849575
2022-10-24T05:52:05.056Z,50.849579
2022-10-24T05:53:05.145Z,50.849567
2022-10-24T05:54:05.111Z,50.849567
2022-10-24T05:55:08.642Z,50.849575
2022-10-24T05:56:05.060Z,50.849571
2022-10-24T05:57:05.170Z,50.849586
2022-10-24T05:58:05.018Z,50.849606
2022-10-24T05:59:05.039Z,50.849609
2022-10-24T06:00:05.006Z,50.849598
2022-10-24T06:01:05.187Z,50.849579
2022-10-24T06:02:05.067Z,50.849583
2022-10-24T06:03:04.991Z,50.849575
2022-10-24T06:04:07.759Z,50.849579
2022-10-24T06:05:05.986Z,50.849583
2022-10-24T06:06:04.950Z,50.849583
2022-10-24T06:07:04.946Z,50.849567
2022-10-24T06:08:04.938Z,50.849567
2022-10-24T06:09:04.947Z,50.849560
2022-10-24T06:10:04.945Z,50.849594
2022-10-24T06:11:04.912Z,50.849602
2022-10-24T06:12:04.899Z,50.849575
2022-10-24T06:13:04.899Z,50.849567
2022-10-24T06:14:04.888Z,50.849567
2022-10-24T06:15:04.880Z,50.849594
2022-10-24T06:16:04.919Z,50.849636
2022-10-24T06:17:04.860Z,50.849613
2022-10-24T06:18:04.855Z,50.849598
2022-10-24T06:19:04.853Z,50.849571
2022-10-24T06:20:04.843Z,50.849564
2022-10-24T06:21:04.839Z,50.849575
2022-10-24T06:22:04.838Z,50.849621
2022-10-24T06:23:04.814Z,50.849621
2022-10-24T06:24:04.797Z,50.849621
2022-10-24T06:25:04.807Z,50.849617
2022-10-24T06:26:04.789Z,50.849617
2022-10-24T06:27:04.776Z,50.849598
2022-10-24T06:28:04.856Z,50.849579
2022-10-24T06:29:04.803Z,50.849567
2022-10-24T06:30:04.752Z,50.849571
2022-10-24T06:31:04.744Z,50.849564
2022-10-24T06:32:05.307Z,50.849564
2022-10-24T06:33:04.743Z,50.849579
2022-10-24T06:34:04.750Z,50.849579
2022-10-24T06:35:04.751Z,50.849621
2022-10-24T06:36:04.724Z,50.849583
2022-10-24T06:37:04.723Z,50.849556
2022-10-24T06:38:04.704Z,50.849571
2022-10-24T06:39:04.684Z,50.849583
2022-10-24T06:40:04.672Z,50.849590
2022-10-24T06:41:04.663Z,50.849586
2022-10-24T06:42:04.711Z,50.849583
2022-10-24T06:43:04.664Z,50.849541
2022-10-24T06:44:07.710Z,50.849598
2022-10-24T06:45:05.626Z,50.849575
2022-10-24T06:46:04.616Z,50.849609
2022-10-24T06:47:04.612Z,50.849579
2022-10-24T06:48:04.616Z,50.849579
2022-10-24T06:49:04.627Z,50.849590
2022-10-24T06:50:04.591Z,50.849522
2022-10-24T06:51:04.579Z,50.849571
2022-10-24T06:52:04.580Z,50.849552
2022-10-24T06:53:04.566Z,50.849556
2022-10-24T06:54:04.548Z,50.849541
2022-10-24T06:55:04.574Z,50.849506
2022-10-24T06:56:04.544Z,50.849476
2022-10-24T06:57:04.527Z,50.849503
2022-10-24T06:58:04.518Z,50.849556
2022-10-24T06:59:04.539Z,50.849541
2022-10-24T07:00:04.546Z,50.849503
2022-10-24T07:01:04.556Z,50.849510
2022-10-24T07:02:05.995Z,50.849556
2022-10-24T07:03:04.479Z,50.849552
2022-10-24T07:04:04.483Z,50.849537
2022-10-24T07:05:04.493Z,50.849518
2022-10-24T07:06:04.479Z,50.849491
2022-10-24T07:07:04.451Z,50.849529
2022-10-24T07:08:04.452Z,50.849499
2022-10-24T07:09:04.439Z,50.849518
2022-10-24T07:10:04.450Z,50.849503
2022-10-24T07:11:04.438Z,50.849522
2022-10-24T07:12:04.482Z,50.849533
2022-10-24T07:13:04.411Z,50.849529
2022-10-24T07:14:06.923Z,50.849548
2022-10-24T07:15:04.406Z,50.849560
2022-10-24T07:16:04.381Z,50.849522
2022-10-24T07:17:04.385Z,50.849552
2022-10-24T07:18:04.411Z,50.849491
2022-10-24T07:19:04.361Z,50.849503
2022-10-24T07:20:04.355Z,50.849529
2022-10-24T07:21:04.353Z,50.849541
2022-10-24T07:22:04.347Z,50.849545
2022-10-24T07:23:04.372Z,50.849541
2022-10-24T07:24:04.348Z,50.849548
2022-10-24T07:25:04.336Z,50.849537
2022-10-24T07:26:04.674Z,50.849533
2022-10-24T07:27:04.301Z,50.849533
2022-10-24T07:28:04.292Z,50.849525
2022-10-24T07:29:04.596Z,50.849525
2022-10-24T07:30:05.797Z,50.849518
2022-10-24T07:31:04.297Z,50.849503
2022-10-24T07:32:04.261Z,50.849487
2022-10-24T07:33:04.258Z,50.849510
2022-10-24T07:34:04.248Z,50.849499
2022-10-24T07:35:04.265Z,50.849487
2022-10-24T07:36:04.231Z,50.849506
2022-10-24T07:37:04.215Z,50.849491
2022-10-24T07:38:04.211Z,50.849472
2022-10-24T07:39:04.221Z,50.849483
2022-10-24T07:40:04.202Z,50.849495
2022-10-24T07:41:04.184Z,50.849541
2022-10-24T07:42:04.194Z,50.849510
2022-10-24T07:43:04.165Z,50.849514
2022-10-24T07:44:04.188Z,50.849491
2022-10-24T07:45:04.163Z,50.849495
2022-10-24T07:46:04.158Z,50.849468
2022-10-24T07:47:04.161Z,50.849495
2022-10-24T07:48:04.161Z,50.849487
2022-10-24T07:49:04.120Z,50.849514
2022-10-24T07:50:04.117Z,50.849510
2022-10-24T07:51:04.116Z,50.849514
2022-10-24T07:52:04.115Z,50.849503
2022-10-24T07:53:04.126Z,50.849503
2022-10-24T07:54:04.095Z,50.849503
2022-10-24T07:55:04.103Z,50.849495
2022-10-24T07:56:04.071Z,50.849503
2022-10-24T07:57:04.064Z,50.849518
2022-10-24T07:58:04.086Z,50.849525
2022-10-24T07:59:09.044Z,50.849495
2022-10-24T08:00:05.025Z,50.849495
2022-10-24T08:01:04.047Z,50.849541
2022-10-24T08:02:04.061Z,50.849545
2022-10-24T08:03:04.010Z,50.849525
2022-10-24T08:04:04.022Z,50.849522
2022-10-24T08:05:03.989Z,50.849518
2022-10-24T08:06:03.982Z,50.849518
2022-10-24T08:07:03.973Z,50.849503
2022-10-24T08:08:21.794Z,50.849503
2022-10-24T08:09:04.975Z,50.849510
2022-10-24T08:10:03.938Z,50.849525
2022-10-24T08:11:03.935Z,50.849506
2022-10-24T08:12:03.986Z,50.849503
2022-10-24T08:13:03.921Z,50.849510
2022-10-24T08:14:03.905Z,50.849495
2022-10-24T08:15:03.895Z,50.849495
2022-10-24T08:16:03.903Z,50.849503
2022-10-24T08:17:03.883Z,50.849491
2022-10-24T08:18:03.900Z,50.849483
2022-10-24T08:19:03.871Z,50.849506
2022-10-24T08:20:03.864Z,50.849491
2022-10-24T08:21:03.864Z,50.849503
2022-10-24T08:22:03.860Z,50.849480
2022-10-24T08:23:03.838Z,50.849491
2022-10-24T08:24:03.836Z,50.849491
2022-10-24T08:25:03.814Z,50.849476
2022-10-24T08:26:03.810Z,50.849495
2022-10-24T08:27:03.792Z,50.849506
2022-10-24T08:28:06.586Z,50.849476
2022-10-24T08:29:04.820Z,50.849472
2022-10-24T08:30:03.771Z,50.849495
2022-10-24T08:31:03.834Z,50.849510
2022-10-24T08:32:03.762Z,50.849506
2022-10-24T08:33:03.743Z,50.849510
2022-10-24T08:34:03.725Z,50.849487
2022-10-24T08:35:03.773Z,50.849476
2022-10-24T08:36:03.709Z,50.849483
2022-10-24T08:37:03.705Z,50.849510
2022-10-24T08:38:03.692Z,50.849499
2022-10-24T08:39:03.698Z,50.849514
2022-10-24T08:40:03.673Z,50.849499
2022-10-24T08:41:03.669Z,50.849525
2022-10-24T08:42:03.659Z,50.849529
2022-10-24T08:43:03.656Z,50.849491
2022-10-24T08:44:03.676Z,50.849510
2022-10-24T08:45:03.645Z,50.849495
2022-10-24T08:46:03.638Z,50.849510
2022-10-24T08:47:03.639Z,50.849487
2022-10-24T08:48:03.599Z,50.849491
2022-10-24T08:49:03.613Z,50.849472
2022-10-24T08:50:03.604Z,50.849514
2022-10-24T08:51:03.595Z,50.849480
2022-10-24T08:52:03.572Z,50.849503
2022-10-24T08:53:03.566Z,50.849529
2022-10-24T08:54:03.545Z,50.849525
2022-10-24T08:55:04.932Z,50.849491
2022-10-24T08:56:03.557Z,50.849491
2022-10-24T08:57:03.525Z,50.849506
2022-10-24T08:58:03.537Z,50.849499
2022-10-24T08:59:03.512Z,50.849499
2022-10-24T09:00:03.522Z,50.849579
2022-10-24T09:01:03.621Z,50.849518
2022-10-24T09:02:04.900Z,50.849499
2022-10-24T09:03:03.513Z,50.849503
2022-10-24T09:04:03.463Z,50.849522
2022-10-24T09:05:03.458Z,50.849529
2022-10-24T09:06:03.445Z,50.849499
2022-10-24T09:07:03.459Z,50.849491
2022-10-24T09:08:03.429Z,50.849487
2022-10-24T09:09:03.430Z,50.849480
2022-10-24T09:10:03.418Z,50.849476
2022-10-24T09:13:29.546Z,50.849495
2022-10-24T09:14:29.556Z,50.849503
2022-10-24T09:15:29.541Z,50.849499
2022-10-24T09:16:29.518Z,50.849491
2022-10-24T09:17:29.555Z,50.849487
2022-10-24T09:18:29.504Z,50.849518
2022-10-24T09:19:29.521Z,50.849483
2022-10-24T09:20:29.482Z,50.849468
2022-10-24T09:21:29.501Z,50.849495
2022-10-24T09:22:29.463Z,50.849480
2022-10-24T09:23:29.452Z,50.849503
2022-10-24T09:24:29.448Z,50.849525
2022-10-24T09:25:29.460Z,50.849472
2022-10-24T09:26:29.431Z,50.849480
2022-10-24T09:27:29.450Z,50.849480
2022-10-24T09:28:29.416Z,50.849506
2022-10-24T09:29:29.405Z,50.849495
2022-10-24T09:30:33.043Z,50.849499
2022-10-24T09:31:29.385Z,50.849506
2022-10-24T09:32:29.374Z,50.849468
2022-10-24T09:33:29.389Z,50.849453
2022-10-24T09:34:29.385Z,50.849468
2022-10-24T09:35:29.356Z,50.849499
2022-10-24T09:36:29.341Z,50.849503
2022-10-24T09:37:32.506Z,50.849499
2022-10-24T09:38:30.327Z,50.849503
2022-10-24T09:39:29.356Z,50.849503
2022-10-24T09:40:29.463Z,50.849506
2022-10-24T09:41:29.300Z,50.849510
2022-10-24T09:42:29.286Z,50.849499
2022-10-24T09:43:29.275Z,50.849468
2022-10-24T09:44:29.260Z,50.849476
2022-10-24T09:45:29.280Z,50.849514
2022-10-24T09:46:29.269Z,50.849560
2022-10-24T09:47:29.362Z,50.849686
2022-10-24T09:48:30.448Z,50.849449
2022-10-24T09:49:29.249Z,50.849491
2022-10-24T09:50:29.216Z,50.849533
2022-10-24T09:51:29.240Z,50.849533
2022-10-24T09:52:29.201Z,50.849464
2022-10-24T09:53:29.206Z,50.849487
2022-10-24T09:54:29.307Z,50.849483
2022-10-24T09:55:29.192Z,50.849487
2022-10-24T09:56:29.199Z,50.849472
2022-10-24T09:57:30.881Z,50.849491
2022-10-24T09:58:29.150Z,50.849480
2022-10-24T09:59:29.147Z,50.849468
2022-10-24T10:00:29.138Z,50.849476
2022-10-24T10:01:29.230Z,50.849438
2022-10-24T10:02:29.953Z,50.849411
2022-10-24T10:03:29.142Z,50.849487
2022-10-24T10:04:29.097Z,50.849434
2022-10-24T10:05:29.093Z,50.849480
2022-10-24T10:06:29.084Z,50.849491
2022-10-24T10:07:29.076Z,50.849403
2022-10-24T10:08:29.086Z,50.849304
2022-10-24T10:09:29.089Z,50.849365
2022-10-24T10:10:29.125Z,50.849449
2022-10-24T10:11:29.047Z,50.849491
2022-10-24T10:12:29.034Z,50.849415
2022-10-24T10:13:29.090Z,50.849430
2022-10-24T10:14:29.007Z,50.849480
2022-10-24T10:15:29.030Z,50.849499
2022-10-24T10:16:28.993Z,50.849525
2022-10-24T10:17:28.991Z,50.849483
2022-10-24T10:18:28.987Z,50.849480
2022-10-24T10:19:28.977Z,50.849476
2022-10-24T10:20:28.988Z,50.849548
2022-10-24T10:21:28.973Z,50.849499
2022-10-24T10:22:28.967Z,50.849503
2022-10-24T10:23:28.958Z,50.849483
2022-10-24T10:24:28.948Z,50.849430
2022-10-24T10:25:28.957Z,50.849464
2022-10-24T10:26:28.924Z,50.849503
2022-10-24T10:27:28.915Z,50.849510
2022-10-24T10:28:28.914Z,50.849483
2022-10-24T10:29:28.910Z,50.849472
2022-10-24T10:30:28.888Z,50.849472
2022-10-24T10:31:28.905Z,50.849506
2022-10-24T10:32:28.923Z,50.849468
2022-10-24T10:33:28.877Z,50.849472
2022-10-24T10:34:28.859Z,50.849491
2022-10-24T10:35:28.863Z,50.849468
2022-10-24T10:36:28.908Z,50.849487
2022-10-24T10:37:28.975Z,50.849503
2022-10-24T10:38:28.890Z,50.849514
2022-10-24T10:39:28.838Z,50.849499
2022-10-24T10:40:28.816Z,50.849487
2022-10-24T10:41:28.865Z,50.849506
2022-10-24T10:42:28.795Z,50.849483
2022-10-24T10:43:28.791Z,50.849476
2022-10-24T10:44:28.778Z,50.849480
2022-10-24T10:45:28.777Z,50.849483
2022-10-24T10:46:28.776Z,50.849491
2022-10-24T10:47:28.778Z,50.849499
2022-10-24T10:48:28.749Z,50.849529
2022-10-24T10:49:28.753Z,50.849529
2022-10-24T10:50:28.738Z,50.849522
2022-10-24T10:51:28.749Z,50.849537
2022-10-24T10:52:28.722Z,50.849510
2022-10-24T10:53:28.731Z,50.849510
2022-10-24T10:54:28.690Z,50.849495
2022-10-24T10:55:28.683Z,50.849503
2022-10-24T10:56:28.691Z,50.849506
2022-10-24T10:57:29.130Z,50.849522
2022-10-24T10:58:28.693Z,50.849525
2022-10-24T10:59:29.587Z,50.849522
2022-10-24T11:00:28.651Z,50.849506
2022-10-24T11:01:28.712Z,50.849525
2022-10-24T11:02:28.770Z,50.849506
2022-10-24T11:03:28.636Z,50.849506
2022-10-24T11:04:28.637Z,50.849499
2022-10-24T11:05:28.617Z,50.849510
2022-10-24T11:06:28.607Z,50.849518
2022-10-24T11:07:28.605Z,50.849518
2022-10-24T11:08:28.589Z,50.849503
2022-10-24T11:09:28.613Z,50.849510
2022-10-24T11:10:28.579Z,50.849506
2022-10-24T11:11:28.557Z,50.849518
2022-10-24T11:12:28.567Z,50.849518
2022-10-24T11:13:30.488Z,50.849499
2022-10-24T11:14:29.552Z,50.849506
2022-10-24T11:15:28.542Z,50.849483
2022-10-24T11:16:28.559Z,50.849483
2022-10-24T11:17:28.550Z,50.849506
2022-10-24T11:18:31.622Z,50.849518
2022-10-24T11:19:29.508Z,50.849499
2022-10-24T11:20:28.493Z,50.849476
2022-10-24T11:21:28.533Z,50.849461
2022-10-24T11:22:28.499Z,50.849514
2022-10-24T11:23:28.465Z,50.849556
2022-10-24T11:24:28.461Z,50.849541
2022-10-24T11:25:28.484Z,50.849476
2022-10-24T11:26:28.442Z,50.849510
2022-10-24T11:27:28.450Z,50.849487